createdAt,value
2019-05-06T00:00:58.378Z,3.60
2019-05-06T00:01:54.000Z,5.10
2019-05-06T00:02:54.246Z,3.70
2019-05-06T00:03:54.026Z,3.50
2019-05-06T00:04:54.064Z,6.40
2019-05-06T00:05:54.144Z,3.90
2019-05-06T00:06:51.967Z,6.30
2019-05-06T00:07:53.810Z,5.40
2019-05-06T00:08:51.891Z,6.10
2019-05-06T00:09:53.901Z,5.10
2019-05-06T00:10:54.082Z,5.40
2019-05-06T00:11:54.106Z,8.30
2019-05-06T00:12:53.575Z,9.90
2019-05-06T00:13:54.099Z,8.10
2019-05-06T00:14:54.061Z,3.90
2019-05-06T00:15:51.826Z,4.30
2019-05-06T00:16:51.807Z,3.80
2019-05-06T00:17:53.797Z,4.30
2019-05-06T00:18:53.838Z,4.40
2019-05-06T00:19:53.961Z,3.90
2019-05-06T00:20:54.810Z,4.30
2019-05-06T00:21:53.870Z,5.80
2019-05-06T00:22:51.734Z,4.20
2019-05-06T00:23:51.724Z,5.10
2019-05-06T00:24:51.713Z,4.40
2019-05-06T00:25:53.540Z,4.00
2019-05-06T00:26:55.227Z,6.20
2019-05-06T00:27:54.406Z,4.40
2019-05-06T00:28:53.759Z,4.70
2019-05-06T00:29:51.674Z,4.60
2019-05-06T00:30:51.750Z,7.20
2019-05-06T00:31:53.530Z,4.50
2019-05-06T00:32:53.737Z,3.80
2019-05-06T00:33:53.830Z,4.10
2019-05-06T00:34:51.599Z,6.10
2019-05-06T00:35:51.589Z,4.60
2019-05-06T00:36:51.583Z,4.70
2019-05-06T00:37:53.571Z,8.20
2019-05-06T00:38:51.565Z,11.40
2019-05-06T00:39:53.831Z,4.00
2019-05-06T00:40:51.530Z,6.30
2019-05-06T00:41:51.526Z,5.30
2019-05-06T00:42:51.511Z,7.20
2019-05-06T00:43:51.520Z,10.40
2019-05-06T00:44:53.640Z,5.40
2019-05-06T00:45:53.175Z,5.40
2019-05-06T00:46:51.463Z,4.60
2019-05-06T00:47:53.494Z,4.40
2019-05-06T00:48:51.450Z,4.20
2019-05-06T00:49:51.444Z,4.70
2019-05-06T00:50:53.465Z,7.00
2019-05-06T00:51:51.438Z,5.70
2019-05-06T00:52:51.398Z,9.90
2019-05-06T00:53:51.394Z,7.80
2019-05-06T00:54:51.405Z,6.30
2019-05-06T00:55:51.370Z,9.40
2019-05-06T00:56:51.352Z,6.20
2019-05-06T00:57:51.355Z,4.20
2019-05-06T00:58:51.389Z,4.10
2019-05-06T00:59:53.724Z,4.00
2019-05-06T01:00:53.284Z,9.20
2019-05-06T01:01:51.300Z,4.40
2019-05-06T01:02:51.291Z,4.50
2019-05-06T01:03:53.568Z,9.60
2019-05-06T01:04:51.289Z,4.70
2019-05-06T01:05:51.289Z,4.80
2019-05-06T01:06:51.248Z,7.20
2019-05-06T01:07:51.239Z,6.40
2019-05-06T01:08:51.230Z,4.40
2019-05-06T01:09:51.207Z,4.50
2019-05-06T01:10:51.229Z,4.00
2019-05-06T01:11:51.214Z,5.50
2019-05-06T01:12:51.178Z,5.40
2019-05-06T01:13:51.165Z,4.90
2019-05-06T01:14:51.154Z,6.00
2019-05-06T01:15:51.272Z,7.00
2019-05-06T01:16:51.159Z,4.60
2019-05-06T01:17:51.140Z,6.00
2019-05-06T01:18:51.111Z,5.10
2019-05-06T01:19:51.102Z,5.60
2019-05-06T01:20:51.093Z,6.60
2019-05-06T01:21:51.082Z,4.70
2019-05-06T01:22:51.123Z,4.10
2019-05-06T01:23:51.059Z,4.10
2019-05-06T01:24:51.039Z,4.10
2019-05-06T01:25:51.033Z,4.10
2019-05-06T01:26:51.015Z,6.30
2019-05-06T01:27:51.012Z,3.50
2019-05-06T01:28:51.080Z,3.80
2019-05-06T01:29:50.988Z,3.90
2019-05-06T01:30:50.981Z,3.70
2019-05-06T01:31:50.966Z,7.30
2019-05-06T01:32:50.956Z,4.80
2019-05-06T01:33:50.949Z,3.60
2019-05-06T01:34:50.968Z,5.20
2019-05-06T01:35:50.920Z,4.20
2019-05-06T01:36:50.933Z,5.40
2019-05-06T01:37:50.906Z,4.10
2019-05-06T01:38:50.887Z,5.40
2019-05-06T01:39:50.895Z,5.10
2019-05-06T01:40:50.906Z,3.90
2019-05-06T01:41:50.859Z,7.90
2019-05-06T01:42:50.851Z,4.30
2019-05-06T01:43:50.832Z,5.60
2019-05-06T01:44:50.843Z,4.30
2019-05-06T01:45:50.813Z,4.80
2019-05-06T01:46:50.843Z,4.90
2019-05-06T01:47:50.788Z,4.60
2019-05-06T01:48:50.777Z,4.50
2019-05-06T01:49:50.765Z,5.80
2019-05-06T01:50:50.786Z,5.40
2019-05-06T01:51:50.742Z,5.10
2019-05-06T01:52:50.755Z,4.10
2019-05-06T01:53:50.726Z,3.80
2019-05-06T01:54:50.704Z,3.90
2019-05-06T01:55:50.702Z,4.90
2019-05-06T01:56:50.723Z,3.40
2019-05-06T01:57:50.685Z,4.50
2019-05-06T01:58:50.708Z,4.00
2019-05-06T01:59:50.666Z,4.50
2019-05-06T02:00:50.645Z,5.80
2019-05-06T02:01:59.940Z,4.30
2019-05-06T02:02:51.643Z,4.60
2019-05-06T02:03:50.624Z,3.50
2019-05-06T02:04:50.639Z,3.60
2019-05-06T02:05:50.592Z,4.10
2019-05-06T02:06:50.586Z,3.90
2019-05-06T02:07:50.594Z,4.10
2019-05-06T02:08:50.558Z,4.20
2019-05-06T02:09:50.543Z,4.30
2019-05-06T02:10:50.568Z,3.50
2019-05-06T02:11:50.535Z,4.50
2019-05-06T02:12:50.516Z,3.60
2019-05-06T02:13:50.534Z,4.30
2019-05-06T02:14:50.492Z,4.50
2019-05-06T02:15:50.489Z,5.00
2019-05-06T02:16:50.499Z,4.00
2019-05-06T02:17:50.453Z,3.40
2019-05-06T02:18:50.452Z,3.40
2019-05-06T02:19:50.443Z,3.70
2019-05-06T02:20:50.428Z,4.40
2019-05-06T02:21:50.422Z,4.10
2019-05-06T02:22:50.400Z,4.10
2019-05-06T02:23:50.410Z,4.20
2019-05-06T02:24:50.392Z,4.40
2019-05-06T02:25:50.371Z,4.30
2019-05-06T02:26:50.357Z,4.40
2019-05-06T02:27:50.351Z,3.40
2019-05-06T02:28:50.328Z,3.60
2019-05-06T02:29:50.391Z,3.90
2019-05-06T02:30:50.318Z,5.70
2019-05-06T02:31:50.303Z,4.40
2019-05-06T02:32:50.292Z,5.00
2019-05-06T02:33:50.274Z,4.50
2019-05-06T02:34:50.281Z,3.70
2019-05-06T02:35:50.308Z,4.80
2019-05-06T02:36:50.249Z,5.60
2019-05-06T02:37:50.234Z,4.70
2019-05-06T02:38:54.776Z,4.70
2019-05-06T02:39:53.280Z,3.80
2019-05-06T02:40:53.366Z,4.60
2019-05-06T02:41:50.207Z,3.70
2019-05-06T02:42:50.180Z,3.60
2019-05-06T02:43:50.164Z,3.80
2019-05-06T02:44:50.162Z,4.00
2019-05-06T02:45:53.130Z,5.10
2019-05-06T02:46:53.142Z,4.80
2019-05-06T02:47:50.170Z,4.60
2019-05-06T02:48:50.113Z,4.90
2019-05-06T02:49:53.246Z,5.10
2019-05-06T02:50:53.469Z,4.90
2019-05-06T02:51:53.256Z,6.60
2019-05-06T02:52:53.475Z,6.20
2019-05-06T02:53:50.080Z,9.20
2019-05-06T02:54:50.057Z,7.50
2019-05-06T02:55:52.862Z,7.20
2019-05-06T02:56:52.913Z,6.50
2019-05-06T02:57:53.309Z,7.50
2019-05-06T02:58:53.157Z,6.90
2019-05-06T02:59:49.996Z,6.60
2019-05-06T03:00:49.998Z,5.90
2019-05-06T03:01:49.973Z,6.70
2019-05-06T03:02:49.958Z,6.70
2019-05-06T03:03:49.975Z,6.30
2019-05-06T03:04:52.586Z,5.70
2019-05-06T03:05:52.932Z,6.90
2019-05-06T03:06:52.963Z,5.50
2019-05-06T03:07:49.910Z,5.70
2019-05-06T03:08:49.887Z,4.30
2019-05-06T03:09:52.913Z,5.60
2019-05-06T03:10:53.080Z,5.60
2019-05-06T03:11:49.855Z,4.90
2019-05-06T03:12:49.873Z,4.60
2019-05-06T03:13:49.835Z,4.80
2019-05-06T03:14:53.006Z,5.50
2019-05-06T03:15:49.818Z,5.60
2019-05-06T03:16:53.395Z,4.00
2019-05-06T03:17:49.786Z,4.70
2019-05-06T03:18:52.872Z,4.70
2019-05-06T03:19:52.591Z,4.30
2019-05-06T03:20:49.761Z,6.40
2019-05-06T03:21:49.770Z,7.10
2019-05-06T03:22:49.760Z,5.70
2019-05-06T03:23:49.719Z,7.00
2019-05-06T03:24:49.751Z,5.80
2019-05-06T03:25:53.003Z,6.10
2019-05-06T03:26:49.703Z,5.40
2019-05-06T03:27:49.669Z,6.60
2019-05-06T03:28:49.665Z,8.30
2019-05-06T03:29:49.670Z,4.80
2019-05-06T03:30:49.661Z,5.00
2019-05-06T03:31:49.619Z,9.20
2019-05-06T03:33:27.456Z,5.00
2019-05-06T03:34:16.222Z,5.40
2019-05-06T03:35:07.620Z,5.30
2019-05-06T03:36:05.338Z,4.60
2019-05-06T03:36:55.571Z,7.20
2019-05-06T03:37:53.434Z,6.80
2019-05-06T03:38:49.556Z,4.10
2019-05-06T03:39:52.639Z,7.80
2019-05-06T03:40:49.534Z,7.60
2019-05-06T03:41:49.549Z,7.20
2019-05-06T03:42:49.501Z,6.40
2019-05-06T03:43:49.494Z,5.00
2019-05-06T03:44:49.488Z,7.90
2019-05-06T03:45:49.473Z,5.40
2019-05-06T03:46:49.495Z,5.00
2019-05-06T03:47:49.489Z,4.70
2019-05-06T03:48:49.439Z,6.30
2019-05-06T03:49:50.408Z,5.20
2019-05-06T03:50:49.419Z,4.30
2019-05-06T03:51:49.405Z,5.30
2019-05-06T03:52:49.416Z,4.80
2019-05-06T03:53:49.404Z,5.30
2019-05-06T03:54:49.369Z,5.50
2019-05-06T03:55:49.357Z,8.10
2019-05-06T03:56:49.357Z,5.80
2019-05-06T03:57:49.341Z,4.40
2019-05-06T03:58:49.339Z,4.60
2019-05-06T03:59:49.351Z,6.90
2019-05-06T04:00:49.301Z,5.70
2019-05-06T04:01:49.298Z,6.50
2019-05-06T04:02:49.282Z,5.50
2019-05-06T04:03:53.728Z,6.00
2019-05-06T04:04:55.736Z,9.40
2019-05-06T04:05:52.498Z,9.80
2019-05-06T04:06:53.127Z,9.80
2019-05-06T04:07:49.237Z,6.90
2019-05-06T04:08:49.246Z,9.90
2019-05-06T04:09:49.200Z,15.00
2019-05-06T04:10:49.619Z,8.30
2019-05-06T04:11:49.178Z,9.00
2019-05-06T04:12:49.174Z,6.90
2019-05-06T04:13:49.179Z,10.40
2019-05-06T04:14:49.171Z,8.20
2019-05-06T04:15:49.143Z,10.00
2019-05-06T04:16:49.223Z,9.20
2019-05-06T04:17:49.119Z,8.70
2019-05-06T04:18:49.102Z,14.50
2019-05-06T04:19:49.104Z,9.20
2019-05-06T04:20:49.122Z,9.70
2019-05-06T04:21:49.068Z,10.00
2019-05-06T04:22:49.099Z,10.00
2019-05-06T04:23:49.072Z,9.30
2019-05-06T04:24:49.049Z,7.50
2019-05-06T04:25:49.029Z,7.20
2019-05-06T04:26:49.043Z,9.00
2019-05-06T04:27:49.023Z,11.80
2019-05-06T04:28:48.986Z,10.80
2019-05-06T04:29:48.979Z,9.60
2019-05-06T04:30:49.910Z,9.10
2019-05-06T04:31:48.980Z,8.50
2019-05-06T04:32:48.956Z,7.60
2019-05-06T04:34:07.342Z,9.20
2019-05-06T04:34:53.194Z,7.40
2019-05-06T04:35:48.913Z,8.70
2019-05-06T04:36:48.900Z,9.70
2019-05-06T04:37:48.927Z,14.30
2019-05-06T04:38:48.888Z,11.10
2019-05-06T04:39:48.889Z,13.40
2019-05-06T04:40:48.860Z,11.90
2019-05-06T04:41:48.844Z,9.00
2019-05-06T04:42:48.840Z,12.00
2019-05-06T04:43:48.850Z,8.80
2019-05-06T04:44:48.813Z,6.80
2019-05-06T04:45:48.839Z,8.20
2019-05-06T04:46:48.778Z,9.10
2019-05-06T04:47:48.783Z,10.60
2019-05-06T04:48:48.771Z,11.40
2019-05-06T04:49:48.766Z,9.10
2019-05-06T04:50:48.744Z,9.30
2019-05-06T04:51:48.752Z,7.50
2019-05-06T04:52:48.726Z,8.90
2019-05-06T04:53:48.721Z,10.70
2019-05-06T04:54:48.708Z,9.50
2019-05-06T04:55:48.692Z,8.90
2019-05-06T04:56:48.725Z,9.00
2019-05-06T04:57:48.675Z,8.00
2019-05-06T04:58:48.670Z,7.00
2019-05-06T04:59:48.703Z,9.40
2019-05-06T05:00:48.675Z,7.80
2019-05-06T05:01:48.630Z,10.00
2019-05-06T05:02:48.606Z,7.90
2019-05-06T05:03:48.675Z,10.00
2019-05-06T05:04:48.611Z,8.20
2019-05-06T05:05:48.615Z,10.60
2019-05-06T05:06:48.581Z,9.50
2019-05-06T05:07:48.549Z,11.70
2019-05-06T05:08:48.610Z,9.90
2019-05-06T05:09:48.542Z,8.00
2019-05-06T05:10:48.565Z,8.70
2019-05-06T05:11:48.564Z,7.30
2019-05-06T05:12:48.513Z,7.70
2019-05-06T05:13:48.500Z,8.10
2019-05-06T05:14:48.479Z,8.80
2019-05-06T05:15:48.475Z,10.10
2019-05-06T05:16:48.489Z,8.30
2019-05-06T05:17:48.483Z,7.20
2019-05-06T05:18:48.435Z,9.00
2019-05-06T05:19:48.423Z,10.70
2019-05-06T05:20:48.419Z,12.40
2019-05-06T05:21:48.393Z,9.10
2019-05-06T05:22:48.430Z,10.80
2019-05-06T05:23:48.418Z,10.40
2019-05-06T05:24:48.370Z,7.30
2019-05-06T05:25:48.348Z,9.80
2019-05-06T05:26:48.349Z,11.00
2019-05-06T05:27:48.457Z,10.60
2019-05-06T05:28:48.379Z,8.00
2019-05-06T05:29:48.305Z,8.00
2019-05-06T05:30:48.317Z,7.80
2019-05-06T05:31:48.289Z,12.80
2019-05-06T05:32:48.290Z,8.30
2019-05-06T05:33:48.278Z,9.10
2019-05-06T05:34:48.317Z,9.70
2019-05-06T05:35:48.904Z,10.50
2019-05-06T05:36:48.231Z,7.70
2019-05-06T05:37:48.238Z,8.30
2019-05-06T05:38:48.212Z,8.70
2019-05-06T05:39:48.231Z,11.50
2019-05-06T05:40:48.187Z,10.10
2019-05-06T05:41:48.171Z,7.50
2019-05-06T05:42:48.171Z,10.30
2019-05-06T05:43:48.180Z,8.10
2019-05-06T05:44:48.151Z,9.90
2019-05-06T05:45:48.188Z,9.60
2019-05-06T05:46:48.127Z,8.30
2019-05-06T05:47:48.113Z,8.50
2019-05-06T05:48:48.106Z,10.20
2019-05-06T05:49:48.097Z,9.40
2019-05-06T05:50:48.088Z,9.50
2019-05-06T05:51:48.164Z,8.50
2019-05-06T05:53:09.126Z,7.40
2019-05-06T05:53:48.048Z,7.60
2019-05-06T05:54:48.029Z,10.60
2019-05-06T05:55:48.021Z,10.70
2019-05-06T05:56:48.022Z,9.20
2019-05-06T05:57:48.057Z,10.00
2019-05-06T05:58:48.004Z,8.50
2019-05-06T05:59:47.963Z,8.70
2019-05-06T06:00:47.971Z,10.70
2019-05-06T06:01:47.948Z,11.00
2019-05-06T06:02:47.986Z,8.20
2019-05-06T06:03:47.947Z,9.80
2019-05-06T06:04:56.469Z,8.60
2019-05-06T06:05:47.940Z,10.10
2019-05-06T06:06:47.901Z,10.40
2019-05-06T06:07:47.902Z,8.30
2019-05-06T06:08:47.920Z,10.20
2019-05-06T06:09:47.850Z,14.30
2019-05-06T06:10:47.853Z,18.50
2019-05-06T06:11:47.874Z,12.10
2019-05-06T06:12:47.829Z,21.60
2019-05-06T06:13:47.811Z,11.30
2019-05-06T06:14:47.824Z,11.10
2019-05-06T06:15:47.819Z,12.20
2019-05-06T06:16:47.782Z,12.10
2019-05-06T06:17:47.832Z,14.50
2019-05-06T06:18:47.783Z,31.90
2019-05-06T06:19:47.776Z,19.40
2019-05-06T06:20:47.736Z,15.00
2019-05-06T06:21:47.726Z,17.40
2019-05-06T06:22:47.748Z,15.00
2019-05-06T06:23:47.702Z,14.70
2019-05-06T06:24:47.693Z,17.50
2019-05-06T06:25:47.694Z,15.00
2019-05-06T06:26:47.666Z,17.80
2019-05-06T06:27:47.654Z,9.70
2019-05-06T06:28:47.641Z,22.80
2019-05-06T06:29:47.705Z,25.90
2019-05-06T06:30:47.641Z,19.70
2019-05-06T06:31:47.622Z,11.70
2019-05-06T06:32:47.596Z,9.20
2019-05-06T06:33:47.584Z,10.70
2019-05-06T06:34:47.587Z,9.70
2019-05-06T06:35:47.597Z,8.90
2019-05-06T06:36:47.622Z,9.30
2019-05-06T06:37:47.583Z,9.50
2019-05-06T06:38:47.523Z,6.40
2019-05-06T06:39:47.530Z,7.30
2019-05-06T06:40:47.537Z,8.10
2019-05-06T06:41:47.537Z,8.30
2019-05-06T06:42:47.483Z,7.70
2019-05-06T06:43:47.505Z,6.40
2019-05-06T06:44:47.468Z,8.70
2019-05-06T06:45:47.457Z,7.30
2019-05-06T06:46:47.440Z,6.90
2019-05-06T06:47:47.458Z,5.80
2019-05-06T06:48:47.425Z,8.60
2019-05-06T06:49:47.414Z,6.90
2019-05-06T06:50:47.464Z,10.40
2019-05-06T06:51:47.387Z,6.90
2019-05-06T06:52:47.364Z,8.70
2019-05-06T06:53:47.387Z,7.90
2019-05-06T06:54:47.348Z,8.60
2019-05-06T06:55:47.331Z,5.60
2019-05-06T06:56:47.319Z,6.60
2019-05-06T06:57:47.310Z,8.30
2019-05-06T06:58:47.351Z,7.80
2019-05-06T06:59:47.347Z,8.40
2019-05-06T07:00:47.286Z,7.90
2019-05-06T07:01:47.269Z,6.90
2019-05-06T07:02:47.256Z,7.40
2019-05-06T07:03:47.237Z,8.00
2019-05-06T07:04:47.246Z,9.70
2019-05-06T07:05:47.215Z,9.20
2019-05-06T07:06:47.231Z,8.20
2019-05-06T07:07:47.932Z,8.60
2019-05-06T07:08:47.286Z,8.90
2019-05-06T07:09:47.214Z,7.70
2019-05-06T07:10:47.168Z,8.50
2019-05-06T07:11:47.189Z,7.20
2019-05-06T07:12:47.160Z,6.70
2019-05-06T07:13:47.125Z,7.70
2019-05-06T07:14:47.124Z,8.70
2019-05-06T07:15:47.126Z,9.70
2019-05-06T07:16:47.120Z,7.40
2019-05-06T07:17:47.086Z,12.00
2019-05-06T07:18:47.139Z,9.00
2019-05-06T07:19:47.073Z,9.20
2019-05-06T07:20:47.090Z,6.80
2019-05-06T07:21:47.041Z,7.00
2019-05-06T07:22:47.162Z,6.60
2019-05-06T07:23:47.052Z,5.30
2019-05-06T07:24:47.011Z,8.70
2019-05-06T07:25:46.998Z,8.10
2019-05-06T07:26:46.989Z,6.30
2019-05-06T07:27:46.982Z,6.90
2019-05-06T07:28:46.975Z,8.60
2019-05-06T07:29:48.671Z,7.30
2019-05-06T07:30:46.932Z,7.70
2019-05-06T07:31:46.949Z,8.20
2019-05-06T07:32:46.908Z,6.60
2019-05-06T07:33:46.903Z,6.10
2019-05-06T07:34:46.918Z,7.20
2019-05-06T07:35:46.880Z,9.60
2019-05-06T07:36:46.865Z,8.20
2019-05-06T07:37:46.888Z,9.80
2019-05-06T07:38:46.850Z,8.60
2019-05-06T07:39:46.831Z,9.40
2019-05-06T07:40:46.825Z,9.70
2019-05-06T07:41:46.871Z,9.00
2019-05-06T07:42:46.817Z,8.80
2019-05-06T07:43:46.806Z,12.30
2019-05-06T07:44:46.789Z,10.40
2019-05-06T07:45:46.810Z,8.90
2019-05-06T07:46:46.758Z,8.10
2019-05-06T07:47:46.753Z,5.90
2019-05-06T07:48:46.797Z,5.50
2019-05-06T07:49:46.908Z,5.10
2019-05-06T07:50:49.173Z,5.70
2019-05-06T07:51:46.691Z,9.20
2019-05-06T07:52:46.685Z,7.90
2019-05-06T07:53:46.681Z,7.70
2019-05-06T07:54:46.690Z,6.10
2019-05-06T07:55:46.651Z,6.40
2019-05-06T07:56:46.705Z,6.50
2019-05-06T07:57:49.667Z,5.40
2019-05-06T07:58:46.648Z,5.90
2019-05-06T07:59:46.636Z,5.10
2019-05-06T08:00:46.645Z,6.60
2019-05-06T08:01:46.595Z,5.70
2019-05-06T08:02:46.575Z,6.70
2019-05-06T08:03:46.575Z,6.10
2019-05-06T08:04:46.574Z,9.20
2019-05-06T08:05:55.864Z,8.10
2019-05-06T08:06:46.531Z,10.80
2019-05-06T08:07:46.552Z,7.90
2019-05-06T08:08:46.553Z,6.90
2019-05-06T08:09:46.486Z,6.40
2019-05-06T08:10:46.502Z,6.50
2019-05-06T08:11:46.472Z,7.70
2019-05-06T08:12:46.474Z,9.00
2019-05-06T08:13:46.446Z,8.90
2019-05-06T08:14:46.479Z,7.60
2019-05-06T08:15:46.421Z,8.70
2019-05-06T08:16:46.456Z,8.90
2019-05-06T08:17:46.391Z,7.20
2019-05-06T08:18:46.399Z,7.60
2019-05-06T08:19:46.378Z,7.40
2019-05-06T08:20:46.389Z,7.30
2019-05-06T08:21:46.391Z,7.80
2019-05-06T08:22:46.332Z,5.60
2019-05-06T08:23:46.347Z,5.70
2019-05-06T08:24:46.314Z,5.10
2019-05-06T08:25:46.303Z,7.80
2019-05-06T08:26:46.290Z,5.20
2019-05-06T08:27:49.406Z,7.40
2019-05-06T08:28:46.273Z,6.00
2019-05-06T08:29:46.294Z,6.50
2019-05-06T08:30:46.248Z,7.30
2019-05-06T08:31:46.273Z,7.10
2019-05-06T08:32:46.218Z,7.00
2019-05-06T08:33:46.224Z,5.60
2019-05-06T08:34:46.220Z,6.70
2019-05-06T08:35:46.240Z,7.00
2019-05-06T08:36:46.207Z,7.10
2019-05-06T08:37:46.186Z,6.70
2019-05-06T08:38:46.249Z,6.20
2019-05-06T08:39:46.310Z,7.30
2019-05-06T08:40:46.162Z,5.40
2019-05-06T08:41:46.127Z,6.20
2019-05-06T08:42:46.104Z,6.90
2019-05-06T08:43:46.095Z,5.40
2019-05-06T08:44:46.162Z,7.60
2019-05-06T08:45:46.099Z,8.10
2019-05-06T08:46:46.090Z,7.40
2019-05-06T08:47:46.092Z,5.10
2019-05-06T08:48:46.069Z,7.60
2019-05-06T08:49:49.188Z,8.00
2019-05-06T08:50:46.032Z,7.00
2019-05-06T08:51:46.006Z,6.90
2019-05-06T08:52:46.030Z,6.50
2019-05-06T08:53:45.999Z,6.70
2019-05-06T08:54:46.013Z,6.40
2019-05-06T08:55:46.000Z,6.10
2019-05-06T08:56:45.945Z,8.90
2019-05-06T08:57:45.981Z,6.00
2019-05-06T08:58:45.970Z,6.70
2019-05-06T08:59:45.979Z,5.80
2019-05-06T09:00:45.902Z,4.50
2019-05-06T09:01:45.908Z,7.70
2019-05-06T09:02:46.280Z,4.70
2019-05-06T09:03:45.862Z,8.10
2019-05-06T09:04:45.893Z,5.10
2019-05-06T09:05:45.848Z,5.80
2019-05-06T09:06:45.875Z,14.10
2019-05-06T09:07:45.834Z,5.30
2019-05-06T09:08:45.820Z,3.50
2019-05-06T09:09:45.795Z,4.20
2019-05-06T09:10:45.792Z,5.60
2019-05-06T09:11:45.773Z,6.00
2019-05-06T09:12:45.832Z,6.30
2019-05-06T09:13:45.758Z,6.50
2019-05-06T09:14:45.759Z,6.60
2019-05-06T09:15:45.749Z,4.20
2019-05-06T09:16:45.767Z,7.40
2019-05-06T09:17:45.755Z,6.50
2019-05-06T09:18:45.699Z,8.40
2019-05-06T09:19:45.759Z,7.90
2019-05-06T09:20:45.726Z,6.40
2019-05-06T09:21:46.482Z,7.20
2019-05-06T09:22:45.657Z,5.60
2019-05-06T09:23:45.768Z,5.10
2019-05-06T09:24:45.627Z,4.00
2019-05-06T09:25:45.630Z,4.10
2019-05-06T09:26:45.611Z,5.40
2019-05-06T09:27:45.617Z,5.30
2019-05-06T09:28:45.579Z,6.50
2019-05-06T09:29:45.599Z,5.80
2019-05-06T09:30:45.555Z,5.30
2019-05-06T09:31:45.547Z,5.20
2019-05-06T09:32:45.543Z,5.50
2019-05-06T09:33:45.542Z,6.70
2019-05-06T09:34:45.538Z,4.10
2019-05-06T09:35:45.513Z,6.30
2019-05-06T09:36:51.691Z,5.60
2019-05-06T09:37:46.487Z,6.30
2019-05-06T09:38:45.474Z,5.50
2019-05-06T09:39:45.481Z,5.10
2019-05-06T09:40:45.453Z,5.60
2019-05-06T09:41:46.399Z,6.70
2019-05-06T09:42:45.443Z,6.60
2019-05-06T09:43:45.412Z,4.40
2019-05-06T09:44:45.453Z,7.10
2019-05-06T09:45:45.390Z,5.30
2019-05-06T09:46:45.376Z,5.80
2019-05-06T09:47:45.375Z,4.60
2019-05-06T09:48:45.396Z,6.90
2019-05-06T09:49:45.344Z,6.70
2019-05-06T09:50:46.547Z,5.90
2019-05-06T09:51:45.326Z,8.20
2019-05-06T09:52:45.316Z,5.60
2019-05-06T09:53:45.304Z,6.20
2019-05-06T09:54:45.312Z,6.40
2019-05-06T09:55:45.291Z,6.20
2019-05-06T09:56:45.259Z,5.50
2019-05-06T09:57:45.254Z,6.00
2019-05-06T09:58:45.253Z,5.90
2019-05-06T09:59:45.238Z,7.50
2019-05-06T10:00:45.222Z,8.30
2019-05-06T10:01:45.258Z,5.90
2019-05-06T10:02:45.206Z,7.20
2019-05-06T10:03:45.187Z,8.90
2019-05-06T10:04:45.170Z,5.80
2019-05-06T10:05:45.176Z,5.60
2019-05-06T10:06:56.231Z,8.60
2019-05-06T10:07:46.194Z,6.80
2019-05-06T10:08:45.143Z,5.70
2019-05-06T10:09:45.174Z,4.80
2019-05-06T10:10:56.036Z,5.20
2019-05-06T10:11:46.086Z,4.80
2019-05-06T10:12:45.101Z,5.90
2019-05-06T10:13:45.069Z,4.90
2019-05-06T10:14:45.056Z,4.60
2019-05-06T10:15:45.039Z,5.40
2019-05-06T10:16:45.073Z,6.60
2019-05-06T10:17:45.028Z,6.20
2019-05-06T10:18:45.033Z,6.60
2019-05-06T10:19:44.993Z,6.70
2019-05-06T10:20:45.006Z,5.90
2019-05-06T10:21:44.978Z,5.60
2019-05-06T10:22:44.982Z,7.10
2019-05-06T10:23:44.986Z,6.20
2019-05-06T10:24:44.955Z,5.40
2019-05-06T10:25:44.938Z,4.90
2019-05-06T10:26:44.918Z,5.60
2019-05-06T10:27:44.952Z,5.10
2019-05-06T10:28:44.917Z,7.30
2019-05-06T10:29:44.921Z,8.50
2019-05-06T10:30:44.908Z,5.60
2019-05-06T10:31:44.869Z,8.80
2019-05-06T10:32:44.854Z,6.80
2019-05-06T10:33:44.843Z,6.30
2019-05-06T10:34:44.835Z,7.10
2019-05-06T10:35:44.864Z,4.90
2019-05-06T10:36:44.801Z,6.00
2019-05-06T10:37:44.804Z,5.50
2019-05-06T10:38:44.796Z,6.30
2019-05-06T10:39:44.771Z,5.70
2019-05-06T10:40:59.727Z,5.50
2019-05-06T10:41:45.747Z,7.80
2019-05-06T10:42:44.736Z,6.50
2019-05-06T10:43:44.732Z,6.00
2019-05-06T10:44:44.737Z,5.70
2019-05-06T10:45:44.770Z,4.90
2019-05-06T10:46:44.763Z,4.70
2019-05-06T10:47:44.687Z,6.50
2019-05-06T10:48:44.660Z,8.60
2019-05-06T10:49:44.662Z,5.10
2019-05-06T10:50:44.682Z,4.80
2019-05-06T10:51:44.652Z,6.30
2019-05-06T10:52:44.615Z,6.10
2019-05-06T10:53:44.603Z,6.20
2019-05-06T10:54:44.621Z,4.50
2019-05-06T10:55:44.626Z,5.00
2019-05-06T10:56:53.167Z,5.40
2019-05-06T10:57:45.571Z,3.60
2019-05-06T10:58:44.550Z,6.70
2019-05-06T10:59:44.543Z,5.50
2019-05-06T11:00:44.530Z,4.90
2019-05-06T11:01:44.558Z,4.40
2019-05-06T11:02:44.550Z,5.10
2019-05-06T11:03:44.502Z,7.80
2019-05-06T11:04:44.487Z,4.60
2019-05-06T11:05:44.480Z,7.40
2019-05-06T11:06:44.474Z,5.10
2019-05-06T11:07:44.491Z,6.20
2019-05-06T11:08:44.495Z,5.90
2019-05-06T11:09:44.439Z,5.30
2019-05-06T11:10:45.584Z,5.10
2019-05-06T11:11:44.409Z,5.80
2019-05-06T11:12:44.408Z,4.90
2019-05-06T11:13:44.397Z,5.20
2019-05-06T11:14:44.359Z,4.80
2019-05-06T11:15:44.358Z,4.40
2019-05-06T11:16:44.360Z,3.90
2019-05-06T11:17:44.391Z,4.90
2019-05-06T11:18:44.359Z,5.90
2019-05-06T11:19:44.313Z,5.50
2019-05-06T11:20:44.350Z,7.50
2019-05-06T11:21:45.072Z,4.80
2019-05-06T11:22:44.279Z,8.00
2019-05-06T11:23:44.290Z,4.90
2019-05-06T11:24:44.301Z,6.00
2019-05-06T11:25:44.306Z,7.00
2019-05-06T11:26:44.267Z,6.40
2019-05-06T11:27:45.090Z,7.10
2019-05-06T11:28:44.212Z,5.10
2019-05-06T11:29:44.207Z,4.70
2019-05-06T11:30:44.216Z,6.00
2019-05-06T11:31:44.175Z,5.80
2019-05-06T11:32:44.594Z,5.00
2019-05-06T11:33:44.187Z,6.40
2019-05-06T11:34:44.142Z,4.00
2019-05-06T11:35:44.126Z,4.20
2019-05-06T11:36:44.126Z,4.80
2019-05-06T11:37:50.059Z,3.90
2019-05-06T11:38:48.125Z,3.50
2019-05-06T11:39:44.093Z,4.70
2019-05-06T11:40:44.152Z,3.60
2019-05-06T11:42:01.080Z,4.10
2019-05-06T11:42:45.050Z,4.10
2019-05-06T11:43:44.043Z,3.20
2019-05-06T11:44:44.301Z,4.50
2019-05-06T11:45:44.020Z,5.00
2019-05-06T11:46:44.018Z,4.60
2019-05-06T11:47:44.011Z,5.40
2019-05-06T11:48:43.980Z,5.60
2019-05-06T11:49:44.276Z,4.60
2019-05-06T11:50:43.955Z,4.20
2019-05-06T11:51:43.950Z,4.30
2019-05-06T11:52:43.981Z,7.70
2019-05-06T11:53:43.918Z,4.60
2019-05-06T11:54:43.924Z,3.70
2019-05-06T11:55:43.901Z,3.80
2019-05-06T11:56:50.695Z,2.90
2019-05-06T11:57:44.927Z,3.40
2019-05-06T11:58:43.867Z,5.90
2019-05-06T11:59:43.885Z,6.00
2019-05-06T12:00:44.471Z,4.30
2019-05-06T12:01:43.869Z,5.70
2019-05-06T12:02:47.995Z,3.20
2019-05-06T12:03:43.819Z,5.30
2019-05-06T12:04:43.807Z,4.70
2019-05-06T12:05:43.774Z,4.00
2019-05-06T12:06:43.764Z,4.20
2019-05-06T12:08:00.518Z,4.20
2019-05-06T12:08:44.777Z,4.40
2019-05-06T12:09:43.732Z,3.70
2019-05-06T12:10:43.715Z,5.10
2019-05-06T12:11:43.711Z,3.70
2019-05-06T12:12:43.705Z,4.10
2019-05-06T12:13:43.706Z,2.80
2019-05-06T12:15:03.070Z,4.60
2019-05-06T12:15:53.094Z,4.20
2019-05-06T12:16:44.763Z,5.50
2019-05-06T12:17:44.373Z,3.20
2019-05-06T12:18:45.474Z,5.40
2019-05-06T12:19:47.135Z,3.40
2019-05-06T12:20:46.047Z,4.30
2019-05-06T12:21:45.467Z,4.30
2019-05-06T12:22:44.480Z,4.60
2019-05-06T12:23:45.017Z,4.00
2019-05-06T12:24:44.928Z,4.00
2019-05-06T12:25:52.784Z,4.40
2019-05-06T12:26:43.547Z,3.60
2019-05-06T12:27:43.536Z,3.50
2019-05-06T12:28:43.785Z,5.70
2019-05-06T12:29:43.605Z,4.80
2019-05-06T12:30:43.510Z,5.90
2019-05-06T12:31:43.517Z,6.70
2019-05-06T12:32:43.561Z,6.30
2019-05-06T12:33:43.464Z,5.10
2019-05-06T12:34:43.497Z,4.20
2019-05-06T12:35:43.431Z,3.10
2019-05-06T12:36:43.475Z,4.00
2019-05-06T12:37:44.030Z,5.40
2019-05-06T12:38:43.407Z,3.40
2019-05-06T12:39:43.393Z,3.50
2019-05-06T12:40:43.379Z,3.60
2019-05-06T12:41:43.408Z,5.10
2019-05-06T12:42:43.433Z,4.00
2019-05-06T12:43:43.352Z,4.30
2019-05-06T12:44:43.337Z,4.30
2019-05-06T12:45:43.336Z,5.70
2019-05-06T12:46:43.319Z,4.30
2019-05-06T12:47:43.321Z,4.40
2019-05-06T12:48:44.027Z,4.00
2019-05-06T12:49:43.284Z,4.40
2019-05-06T12:50:43.276Z,3.90
2019-05-06T12:51:43.487Z,3.60
2019-05-06T12:52:44.030Z,3.00
2019-05-06T12:53:43.243Z,3.00
2019-05-06T12:54:43.263Z,3.80
2019-05-06T12:55:43.314Z,4.10
2019-05-06T12:56:43.195Z,3.30
2019-05-06T12:57:43.495Z,3.90
2019-05-06T12:58:44.355Z,3.80
2019-05-06T12:59:43.181Z,4.40
2019-05-06T13:00:44.972Z,5.20
2019-05-06T13:01:45.572Z,4.90
2019-05-06T13:02:43.821Z,3.60
2019-05-06T13:03:43.392Z,2.80
2019-05-06T13:04:55.391Z,5.30
2019-05-06T13:05:44.089Z,3.80
2019-05-06T13:06:46.176Z,5.40
2019-05-06T13:07:43.074Z,4.00
2019-05-06T13:08:57.403Z,2.70
2019-05-06T13:09:45.502Z,3.50
2019-05-06T13:10:43.083Z,3.00
2019-05-06T13:11:43.270Z,3.80
2019-05-06T13:12:43.080Z,3.30
2019-05-06T13:13:56.672Z,3.30
2019-05-06T13:14:44.031Z,4.60
2019-05-06T13:15:43.597Z,2.70
2019-05-06T13:16:43.012Z,4.00